sensor_id;sensor_type;location;lat;lon;timestamp;P1;durP1;ratioP1;P2;durP2;ratioP2
4353;SDS011;11018;51.258;6.806;2023-04-03T00:00:56;14.80;;;7.15;;
4353;SDS011;11018;51.258;6.806;2023-04-03T00:03:22;12.15;;;7.70;;
4353;SDS011;11018;51.258;6.806;2023-04-03T00:05:47;10.30;;;7.10;;
4353;SDS011;11018;51.258;6.806;2023-04-03T00:08:13;11.80;;;7.72;;
4353;SDS011;11018;51.258;6.806;2023-04-03T00:10:39;15.52;;;8.35;;
4353;SDS011;11018;51.258;6.806;2023-04-03T00:13:05;13.20;;;8.87;;
4353;SDS011;11018;51.258;6.806;2023-04-03T00:15:31;10.73;;;7.78;;
4353;SDS011;11018;51.258;6.806;2023-04-03T00:17:57;10.18;;;7.10;;
4353;SDS011;11018;51.258;6.806;2023-04-03T00:20:23;9.73;;;7.10;;
4353;SDS011;11018;51.258;6.806;2023-04-03T00:22:48;10.73;;;7.53;;
4353;SDS011;11018;51.258;6.806;2023-04-03T00:25:14;14.98;;;8.90;;
4353;SDS011;11018;51.258;6.806;2023-04-03T00:27:40;8.45;;;6.53;;
4353;SDS011;11018;51.258;6.806;2023-04-03T00:30:06;12.85;;;8.10;;
4353;SDS011;11018;51.258;6.806;2023-04-03T00:32:33;11.73;;;8.85;;
4353;SDS011;11018;51.258;6.806;2023-04-03T00:34:59;12.85;;;8.25;;
4353;SDS011;11018;51.258;6.806;2023-04-03T00:37:25;11.87;;;6.80;;
4353;SDS011;11018;51.258;6.806;2023-04-03T00:39:50;10.40;;;6.80;;
4353;SDS011;11018;51.258;6.806;2023-04-03T00:42:16;12.32;;;7.00;;
4353;SDS011;11018;51.258;6.806;2023-04-03T00:47:11;10.20;;;6.60;;
4353;SDS011;11018;51.258;6.806;2023-04-03T00:49:38;15.00;;;7.50;;
4353;SDS011;11018;51.258;6.806;2023-04-03T00:52:08;11.63;;;6.33;;
4353;SDS011;11018;51.258;6.806;2023-04-03T00:54:40;8.57;;;6.88;;
4353;SDS011;11018;51.258;6.806;2023-04-03T00:57:07;13.32;;;7.50;;
4353;SDS011;11018;51.258;6.806;2023-04-03T00:59:34;12.30;;;7.32;;
4353;SDS011;11018;51.258;6.806;2023-04-03T01:02:05;15.20;;;6.90;;
4353;SDS011;11018;51.258;6.806;2023-04-03T01:04:34;13.77;;;7.37;;
4353;SDS011;11018;51.258;6.806;2023-04-03T01:07:03;10.52;;;7.28;;
4353;SDS011;11018;51.258;6.806;2023-04-03T01:09:32;13.70;;;7.25;;
4353;SDS011;11018;51.258;6.806;2023-04-03T01:14:41;7.93;;;6.68;;
4353;SDS011;11018;51.258;6.806;2023-04-03T01:25:54;12.23;;;7.80;;
4353;SDS011;11018;51.258;6.806;2023-04-03T01:28:28;11.05;;;7.80;;
4353;SDS011;11018;51.258;6.806;2023-04-03T01:33:46;8.83;;;7.50;;
4353;SDS011;11018;51.258;6.806;2023-04-03T01:36:19;12.98;;;7.88;;
4353;SDS011;11018;51.258;6.806;2023-04-03T01:38:53;11.73;;;7.85;;
4353;SDS011;11018;51.258;6.806;2023-04-03T01:41:19;11.20;;;7.50;;
4353;SDS011;11018;51.258;6.806;2023-04-03T01:43:46;10.57;;;7.55;;
4353;SDS011;11018;51.258;6.806;2023-04-03T01:46:11;10.95;;;7.80;;
4353;SDS011;11018;51.258;6.806;2023-04-03T01:48:37;9.27;;;7.33;;
4353;SDS011;11018;51.258;6.806;2023-04-03T01:51:03;14.23;;;7.95;;
4353;SDS011;11018;51.258;6.806;2023-04-03T01:53:28;13.30;;;8.18;;
4353;SDS011;11018;51.258;6.806;2023-04-03T01:55:54;11.60;;;7.30;;
4353;SDS011;11018;51.258;6.806;2023-04-03T01:58:19;11.77;;;7.57;;
4353;SDS011;11018;51.258;6.806;2023-04-03T02:00:45;12.87;;;7.23;;
4353;SDS011;11018;51.258;6.806;2023-04-03T02:03:11;9.07;;;6.88;;
4353;SDS011;11018;51.258;6.806;2023-04-03T02:05:36;15.05;;;7.43;;
4353;SDS011;11018;51.258;6.806;2023-04-03T02:08:03;14.27;;;7.38;;
4353;SDS011;11018;51.258;6.806;2023-04-03T02:10:28;10.27;;;7.43;;
4353;SDS011;11018;51.258;6.806;2023-04-03T02:12:54;13.07;;;7.10;;
4353;SDS011;11018;51.258;6.806;2023-04-03T02:15:20;12.68;;;7.50;;
4353;SDS011;11018;51.258;6.806;2023-04-03T02:17:46;15.50;;;7.60;;
4353;SDS011;11018;51.258;6.806;2023-04-03T02:20:11;11.30;;;6.87;;
4353;SDS011;11018;51.258;6.806;2023-04-03T02:22:37;9.60;;;6.60;;
4353;SDS011;11018;51.258;6.806;2023-04-03T02:25:02;13.23;;;7.40;;
4353;SDS011;11018;51.258;6.806;2023-04-03T02:27:29;9.73;;;7.15;;
4353;SDS011;11018;51.258;6.806;2023-04-03T02:29:54;10.88;;;7.32;;
4353;SDS011;11018;51.258;6.806;2023-04-03T02:32:20;10.63;;;8.20;;
4353;SDS011;11018;51.258;6.806;2023-04-03T02:34:45;13.87;;;7.80;;
4353;SDS011;11018;51.258;6.806;2023-04-03T02:37:11;11.05;;;7.65;;
4353;SDS011;11018;51.258;6.806;2023-04-03T02:39:37;12.10;;;8.20;;
4353;SDS011;11018;51.258;6.806;2023-04-03T02:42:02;11.75;;;8.30;;
4353;SDS011;11018;51.258;6.806;2023-04-03T02:44:29;13.90;;;9.27;;
4353;SDS011;11018;51.258;6.806;2023-04-03T02:46:54;15.50;;;8.70;;
4353;SDS011;11018;51.258;6.806;2023-04-03T02:49:20;14.07;;;8.70;;
4353;SDS011;11018;51.258;6.806;2023-04-03T02:51:46;11.48;;;8.80;;
4353;SDS011;11018;51.258;6.806;2023-04-03T02:54:12;13.27;;;8.65;;
4353;SDS011;11018;51.258;6.806;2023-04-03T02:56:38;14.77;;;9.00;;
4353;SDS011;11018;51.258;6.806;2023-04-03T02:59:03;12.30;;;8.63;;
4353;SDS011;11018;51.258;6.806;2023-04-03T03:01:30;11.45;;;8.30;;
4353;SDS011;11018;51.258;6.806;2023-04-03T03:03:57;10.82;;;8.25;;
4353;SDS011;11018;51.258;6.806;2023-04-03T03:06:23;12.27;;;8.75;;
4353;SDS011;11018;51.258;6.806;2023-04-03T03:08:49;13.13;;;8.73;;
4353;SDS011;11018;51.258;6.806;2023-04-03T03:11:15;10.25;;;8.00;;
4353;SDS011;11018;51.258;6.806;2023-04-03T03:13:41;15.45;;;8.95;;
4353;SDS011;11018;51.258;6.806;2023-04-03T03:16:06;13.67;;;8.70;;
4353;SDS011;11018;51.258;6.806;2023-04-03T03:18:33;15.48;;;8.95;;
4353;SDS011;11018;51.258;6.806;2023-04-03T03:21:00;12.55;;;7.40;;
4353;SDS011;11018;51.258;6.806;2023-04-03T03:23:27;15.70;;;9.80;;
4353;SDS011;11018;51.258;6.806;2023-04-03T03:26:00;12.93;;;8.02;;
4353;SDS011;11018;51.258;6.806;2023-04-03T03:28:27;11.88;;;7.43;;
4353;SDS011;11018;51.258;6.806;2023-04-03T03:30:52;10.10;;;6.95;;
4353;SDS011;11018;51.258;6.806;2023-04-03T03:33:18;15.57;;;8.80;;
4353;SDS011;11018;51.258;6.806;2023-04-03T03:35:44;11.75;;;7.65;;
4353;SDS011;11018;51.258;6.806;2023-04-03T03:38:10;14.90;;;7.78;;
4353;SDS011;11018;51.258;6.806;2023-04-03T03:40:36;11.90;;;6.97;;
4353;SDS011;11018;51.258;6.806;2023-04-03T03:43:02;11.43;;;7.60;;
4353;SDS011;11018;51.258;6.806;2023-04-03T03:45:28;9.70;;;6.90;;
4353;SDS011;11018;51.258;6.806;2023-04-03T03:47:53;10.67;;;6.30;;
4353;SDS011;11018;51.258;6.806;2023-04-03T03:50:19;11.13;;;7.20;;
4353;SDS011;11018;51.258;6.806;2023-04-03T03:52:44;13.03;;;7.53;;
4353;SDS011;11018;51.258;6.806;2023-04-03T03:55:10;9.20;;;6.68;;
4353;SDS011;11018;51.258;6.806;2023-04-03T03:57:36;11.63;;;6.80;;
4353;SDS011;11018;51.258;6.806;2023-04-03T04:00:02;11.93;;;7.80;;
4353;SDS011;11018;51.258;6.806;2023-04-03T04:02:29;12.98;;;7.43;;
4353;SDS011;11018;51.258;6.806;2023-04-03T04:04:54;10.57;;;7.05;;
4353;SDS011;11018;51.258;6.806;2023-04-03T04:07:20;9.02;;;5.90;;
4353;SDS011;11018;51.258;6.806;2023-04-03T04:09:46;13.88;;;7.43;;
4353;SDS011;11018;51.258;6.806;2023-04-03T04:12:11;11.27;;;6.77;;
4353;SDS011;11018;51.258;6.806;2023-04-03T04:14:37;13.57;;;7.70;;
4353;SDS011;11018;51.258;6.806;2023-04-03T04:17:02;14.10;;;7.80;;
4353;SDS011;11018;51.258;6.806;2023-04-03T04:19:28;11.18;;;5.90;;
4353;SDS011;11018;51.258;6.806;2023-04-03T04:21:54;13.02;;;6.30;;
4353;SDS011;11018;51.258;6.806;2023-04-03T04:24:19;11.50;;;7.07;;
4353;SDS011;11018;51.258;6.806;2023-04-03T04:26:45;18.07;;;7.60;;
4353;SDS011;11018;51.258;6.806;2023-04-03T04:29:10;15.67;;;6.43;;
4353;SDS011;11018;51.258;6.806;2023-04-03T04:31:36;13.55;;;7.50;;
4353;SDS011;11018;51.258;6.806;2023-04-03T04:34:02;13.25;;;8.13;;
4353;SDS011;11018;51.258;6.806;2023-04-03T04:36:27;13.23;;;7.40;;
4353;SDS011;11018;51.258;6.806;2023-04-03T04:38:53;9.43;;;5.33;;
4353;SDS011;11018;51.258;6.806;2023-04-03T04:41:19;10.85;;;6.70;;
4353;SDS011;11018;51.258;6.806;2023-04-03T04:43:47;7.88;;;5.10;;
4353;SDS011;11018;51.258;6.806;2023-04-03T04:46:16;6.78;;;5.50;;
4353;SDS011;11018;51.258;6.806;2023-04-03T04:48:42;14.07;;;5.18;;
4353;SDS011;11018;51.258;6.806;2023-04-03T04:51:09;10.07;;;5.93;;
4353;SDS011;11018;51.258;6.806;2023-04-03T04:53:34;9.75;;;6.05;;
4353;SDS011;11018;51.258;6.806;2023-04-03T04:56:00;9.80;;;6.45;;
4353;SDS011;11018;51.258;6.806;2023-04-03T04:58:26;12.18;;;6.90;;
4353;SDS011;11018;51.258;6.806;2023-04-03T05:01:01;15.57;;;7.50;;
4353;SDS011;11018;51.258;6.806;2023-04-03T05:03:28;15.75;;;7.38;;
4353;SDS011;11018;51.258;6.806;2023-04-03T05:05:54;11.43;;;5.57;;
4353;SDS011;11018;51.258;6.806;2023-04-03T05:08:19;9.40;;;5.83;;
4353;SDS011;11018;51.258;6.806;2023-04-03T05:10:45;10.33;;;5.70;;
4353;SDS011;11018;51.258;6.806;2023-04-03T05:13:11;14.68;;;7.28;;
4353;SDS011;11018;51.258;6.806;2023-04-03T05:15:36;11.17;;;6.13;;
4353;SDS011;11018;51.258;6.806;2023-04-03T05:18:02;10.03;;;5.00;;
4353;SDS011;11018;51.258;6.806;2023-04-03T05:20:27;11.60;;;5.80;;
4353;SDS011;11018;51.258;6.806;2023-04-03T05:22:53;10.82;;;4.65;;
4353;SDS011;11018;51.258;6.806;2023-04-03T05:25:19;8.88;;;4.65;;
4353;SDS011;11018;51.258;6.806;2023-04-03T05:27:44;11.43;;;4.50;;
4353;SDS011;11018;51.258;6.806;2023-04-03T05:30:10;10.23;;;5.17;;
4353;SDS011;11018;51.258;6.806;2023-04-03T05:32:36;11.52;;;5.60;;
4353;SDS011;11018;51.258;6.806;2023-04-03T05:35:01;6.45;;;4.20;;
4353;SDS011;11018;51.258;6.806;2023-04-03T05:37:27;9.77;;;5.17;;
4353;SDS011;11018;51.258;6.806;2023-04-03T05:39:52;9.43;;;4.43;;
4353;SDS011;11018;51.258;6.806;2023-04-03T05:42:18;11.60;;;5.50;;
4353;SDS011;11018;51.258;6.806;2023-04-03T05:44:43;9.50;;;4.87;;
4353;SDS011;11018;51.258;6.806;2023-04-03T05:47:11;7.05;;;4.05;;
4353;SDS011;11018;51.258;6.806;2023-04-03T05:49:37;8.00;;;4.33;;
4353;SDS011;11018;51.258;6.806;2023-04-03T05:52:05;11.93;;;5.25;;
4353;SDS011;11018;51.258;6.806;2023-04-03T05:54:54;11.88;;;5.05;;
4353;SDS011;11018;51.258;6.806;2023-04-03T05:57:21;10.57;;;4.25;;
4353;SDS011;11018;51.258;6.806;2023-04-03T05:59:46;9.50;;;4.75;;
4353;SDS011;11018;51.258;6.806;2023-04-03T06:02:14;10.73;;;5.38;;
4353;SDS011;11018;51.258;6.806;2023-04-03T06:04:42;9.50;;;5.72;;
4353;SDS011;11018;51.258;6.806;2023-04-03T06:07:11;6.75;;;4.03;;
4353;SDS011;11018;51.258;6.806;2023-04-03T06:09:39;10.45;;;4.70;;
4353;SDS011;11018;51.258;6.806;2023-04-03T06:12:04;11.93;;;4.43;;
4353;SDS011;11018;51.258;6.806;2023-04-03T06:14:30;11.32;;;4.70;;
4353;SDS011;11018;51.258;6.806;2023-04-03T06:16:56;7.37;;;4.47;;
4353;SDS011;11018;51.258;6.806;2023-04-03T06:19:21;10.30;;;5.10;;
4353;SDS011;11018;51.258;6.806;2023-04-03T06:21:47;7.72;;;4.70;;
4353;SDS011;11018;51.258;6.806;2023-04-03T06:24:14;11.13;;;4.50;;
4353;SDS011;11018;51.258;6.806;2023-04-03T06:26:41;8.80;;;4.80;;
4353;SDS011;11018;51.258;6.806;2023-04-03T06:29:07;10.70;;;5.27;;
4353;SDS011;11018;51.258;6.806;2023-04-03T06:31:33;9.80;;;4.90;;
4353;SDS011;11018;51.258;6.806;2023-04-03T06:33:59;11.85;;;4.50;;
4353;SDS011;11018;51.258;6.806;2023-04-03T06:36:25;13.02;;;4.30;;
4353;SDS011;11018;51.258;6.806;2023-04-03T06:38:50;10.73;;;4.07;;
4353;SDS011;11018;51.258;6.806;2023-04-03T06:41:16;10.33;;;5.97;;
4353;SDS011;11018;51.258;6.806;2023-04-03T06:43:42;10.60;;;5.30;;
4353;SDS011;11018;51.258;6.806;2023-04-03T06:46:18;13.13;;;6.10;;
4353;SDS011;11018;51.258;6.806;2023-04-03T06:48:46;11.30;;;4.22;;
4353;SDS011;11018;51.258;6.806;2023-04-03T06:51:19;7.70;;;4.20;;
4353;SDS011;11018;51.258;6.806;2023-04-03T06:53:46;8.52;;;4.80;;
4353;SDS011;11018;51.258;6.806;2023-04-03T06:56:12;10.65;;;4.40;;
4353;SDS011;11018;51.258;6.806;2023-04-03T06:58:38;10.63;;;4.80;;
4353;SDS011;11018;51.258;6.806;2023-04-03T07:01:05;11.50;;;4.70;;
4353;SDS011;11018;51.258;6.806;2023-04-03T07:03:31;11.20;;;5.70;;
4353;SDS011;11018;51.258;6.806;2023-04-03T07:05:56;13.47;;;4.47;;
4353;SDS011;11018;51.258;6.806;2023-04-03T07:08:22;7.97;;;4.73;;
4353;SDS011;11018;51.258;6.806;2023-04-03T07:10:48;11.20;;;5.50;;
4353;SDS011;11018;51.258;6.806;2023-04-03T07:13:15;6.47;;;3.50;;
4353;SDS011;11018;51.258;6.806;2023-04-03T07:15:40;7.57;;;3.87;;
4353;SDS011;11018;51.258;6.806;2023-04-03T07:18:06;14.35;;;4.78;;
4353;SDS011;11018;51.258;6.806;2023-04-03T07:20:32;6.88;;;4.15;;
4353;SDS011;11018;51.258;6.806;2023-04-03T07:22:57;8.53;;;4.03;;
4353;SDS011;11018;51.258;6.806;2023-04-03T07:25:23;10.67;;;4.63;;
4353;SDS011;11018;51.258;6.806;2023-04-03T07:27:49;12.00;;;3.40;;
4353;SDS011;11018;51.258;6.806;2023-04-03T07:30:14;9.90;;;4.03;;
4353;SDS011;11018;51.258;6.806;2023-04-03T07:32:40;9.07;;;4.95;;
4353;SDS011;11018;51.258;6.806;2023-04-03T07:35:06;10.23;;;5.20;;
4353;SDS011;11018;51.258;6.806;2023-04-03T07:37:32;10.48;;;4.30;;
4353;SDS011;11018;51.258;6.806;2023-04-03T07:39:58;9.30;;;4.00;;
4353;SDS011;11018;51.258;6.806;2023-04-03T07:42:24;8.18;;;3.10;;
4353;SDS011;11018;51.258;6.806;2023-04-03T07:44:52;8.25;;;3.67;;
4353;SDS011;11018;51.258;6.806;2023-04-03T07:47:18;8.10;;;3.37;;
4353;SDS011;11018;51.258;6.806;2023-04-03T07:49:45;8.40;;;3.30;;
4353;SDS011;11018;51.258;6.806;2023-04-03T07:52:11;10.65;;;3.60;;
4353;SDS011;11018;51.258;6.806;2023-04-03T07:54:36;8.77;;;3.40;;
4353;SDS011;11018;51.258;6.806;2023-04-03T07:57:02;8.17;;;3.60;;
4353;SDS011;11018;51.258;6.806;2023-04-03T07:59:28;7.93;;;3.15;;
4353;SDS011;11018;51.258;6.806;2023-04-03T08:01:54;5.82;;;3.00;;
4353;SDS011;11018;51.258;6.806;2023-04-03T08:04:20;12.07;;;4.38;;
4353;SDS011;11018;51.258;6.806;2023-04-03T08:06:45;6.20;;;3.10;;
4353;SDS011;11018;51.258;6.806;2023-04-03T08:09:11;9.00;;;3.63;;
4353;SDS011;11018;51.258;6.806;2023-04-03T08:11:38;7.87;;;3.50;;
4353;SDS011;11018;51.258;6.806;2023-04-03T08:14:04;10.25;;;3.88;;
4353;SDS011;11018;51.258;6.806;2023-04-03T08:16:30;5.57;;;2.80;;
4353;SDS011;11018;51.258;6.806;2023-04-03T08:18:56;8.00;;;3.60;;
4353;SDS011;11018;51.258;6.806;2023-04-03T08:21:21;9.10;;;3.40;;
4353;SDS011;11018;51.258;6.806;2023-04-03T08:23:48;8.00;;;4.00;;
4353;SDS011;11018;51.258;6.806;2023-04-03T08:26:18;11.10;;;4.20;;
4353;SDS011;11018;51.258;6.806;2023-04-03T08:28:46;8.00;;;3.60;;
4353;SDS011;11018;51.258;6.806;2023-04-03T08:31:14;11.05;;;4.00;;
4353;SDS011;11018;51.258;6.806;2023-04-03T08:33:41;9.15;;;3.17;;
4353;SDS011;11018;51.258;6.806;2023-04-03T08:36:14;7.43;;;3.45;;
4353;SDS011;11018;51.258;6.806;2023-04-03T08:38:43;9.52;;;3.80;;
4353;SDS011;11018;51.258;6.806;2023-04-03T08:49:32;9.07;;;4.18;;
4353;SDS011;11018;51.258;6.806;2023-04-03T08:52:02;8.03;;;2.30;;
4353;SDS011;11018;51.258;6.806;2023-04-03T08:54:34;6.00;;;3.25;;
4353;SDS011;11018;51.258;6.806;2023-04-03T08:57:06;6.93;;;2.60;;
4353;SDS011;11018;51.258;6.806;2023-04-03T08:59:33;6.40;;;2.60;;
4353;SDS011;11018;51.258;6.806;2023-04-03T09:02:01;5.82;;;2.80;;
4353;SDS011;11018;51.258;6.806;2023-04-03T09:04:32;7.43;;;3.42;;
4353;SDS011;11018;51.258;6.806;2023-04-03T09:07:02;8.98;;;4.15;;
4353;SDS011;11018;51.258;6.806;2023-04-03T09:09:40;8.05;;;4.13;;
4353;SDS011;11018;51.258;6.806;2023-04-03T09:23:21;6.40;;;2.15;;
4353;SDS011;11018;51.258;6.806;2023-04-03T09:25:59;6.70;;;3.08;;
4353;SDS011;11018;51.258;6.806;2023-04-03T09:28:30;12.13;;;4.85;;
4353;SDS011;11018;51.258;6.806;2023-04-03T09:31:00;7.60;;;2.53;;
4353;SDS011;11018;51.258;6.806;2023-04-03T09:33:44;7.57;;;3.40;;
4353;SDS011;11018;51.258;6.806;2023-04-03T09:36:10;7.82;;;3.15;;
4353;SDS011;11018;51.258;6.806;2023-04-03T09:38:36;8.32;;;3.33;;
4353;SDS011;11018;51.258;6.806;2023-04-03T09:41:04;5.05;;;3.03;;
4353;SDS011;11018;51.258;6.806;2023-04-03T09:43:42;5.22;;;3.20;;
4353;SDS011;11018;51.258;6.806;2023-04-03T09:46:33;5.00;;;2.80;;
4353;SDS011;11018;51.258;6.806;2023-04-03T09:49:04;8.30;;;3.60;;
4353;SDS011;11018;51.258;6.806;2023-04-03T09:51:30;3.25;;;1.63;;
4353;SDS011;11018;51.258;6.806;2023-04-03T09:53:56;5.72;;;2.70;;
4353;SDS011;11018;51.258;6.806;2023-04-03T09:56:26;7.22;;;3.28;;
4353;SDS011;11018;51.258;6.806;2023-04-03T10:04:17;5.07;;;2.60;;
4353;SDS011;11018;51.258;6.806;2023-04-03T10:06:48;8.02;;;4.07;;
4353;SDS011;11018;51.258;6.806;2023-04-03T10:09:25;8.55;;;4.07;;
4353;SDS011;11018;51.258;6.806;2023-04-03T10:12:03;9.80;;;4.70;;
4353;SDS011;11018;51.258;6.806;2023-04-03T10:14:53;6.20;;;2.70;;
4353;SDS011;11018;51.258;6.806;2023-04-03T10:25:31;9.93;;;5.15;;
4353;SDS011;11018;51.258;6.806;2023-04-03T10:38:54;6.35;;;3.40;;
4353;SDS011;11018;51.258;6.806;2023-04-03T10:41:28;8.37;;;4.00;;
4353;SDS011;11018;51.258;6.806;2023-04-03T10:46:43;8.00;;;3.45;;
4353;SDS011;11018;51.258;6.806;2023-04-03T10:52:37;9.93;;;4.88;;
4353;SDS011;11018;51.258;6.806;2023-04-03T10:55:24;9.50;;;3.20;;
4353;SDS011;11018;51.258;6.806;2023-04-03T10:57:55;7.53;;;3.33;;
4353;SDS011;11018;51.258;6.806;2023-04-03T11:00:26;8.60;;;2.47;;
4353;SDS011;11018;51.258;6.806;2023-04-03T11:03:10;6.13;;;2.60;;
4353;SDS011;11018;51.258;6.806;2023-04-03T11:05:47;6.30;;;3.60;;
4353;SDS011;11018;51.258;6.806;2023-04-03T11:08:29;10.43;;;3.78;;
4353;SDS011;11018;51.258;6.806;2023-04-03T11:11:05;7.90;;;4.78;;
4353;SDS011;11018;51.258;6.806;2023-04-03T11:13:37;7.45;;;3.42;;
4353;SDS011;11018;51.258;6.806;2023-04-03T11:16:07;11.63;;;1.70;;
4353;SDS011;11018;51.258;6.806;2023-04-03T11:18:41;9.57;;;2.30;;
4353;SDS011;11018;51.258;6.806;2023-04-03T11:21:19;5.30;;;2.97;;
4353;SDS011;11018;51.258;6.806;2023-04-03T11:23:49;5.90;;;2.00;;
4353;SDS011;11018;51.258;6.806;2023-04-03T11:26:18;3.03;;;1.70;;
4353;SDS011;11018;51.258;6.806;2023-04-03T11:28:46;7.53;;;4.18;;
4353;SDS011;11018;51.258;6.806;2023-04-03T11:34:15;6.30;;;2.10;;
4353;SDS011;11018;51.258;6.806;2023-04-03T11:37:06;4.35;;;2.00;;
4353;SDS011;11018;51.258;6.806;2023-04-03T11:39:58;6.03;;;2.20;;
4353;SDS011;11018;51.258;6.806;2023-04-03T11:42:38;4.05;;;1.50;;
4353;SDS011;11018;51.258;6.806;2023-04-03T11:53:02;5.05;;;2.05;;
4353;SDS011;11018;51.258;6.806;2023-04-03T12:16:23;4.50;;;2.90;;
4353;SDS011;11018;51.258;6.806;2023-04-03T12:27:07;3.50;;;1.90;;
4353;SDS011;11018;51.258;6.806;2023-04-03T12:29:46;9.90;;;2.40;;
4353;SDS011;11018;51.258;6.806;2023-04-03T12:35:20;2.88;;;1.58;;
4353;SDS011;11018;51.258;6.806;2023-04-03T12:46:07;3.38;;;1.50;;
4353;SDS011;11018;51.258;6.806;2023-04-03T12:51:09;3.97;;;1.48;;
4353;SDS011;11018;51.258;6.806;2023-04-03T12:53:39;3.30;;;1.60;;
4353;SDS011;11018;51.258;6.806;2023-04-03T12:56:26;3.70;;;1.90;;
4353;SDS011;11018;51.258;6.806;2023-04-03T12:58:54;4.10;;;2.50;;
4353;SDS011;11018;51.258;6.806;2023-04-03T13:01:37;4.63;;;2.38;;
4353;SDS011;11018;51.258;6.806;2023-04-03T13:04:03;4.20;;;2.35;;
4353;SDS011;11018;51.258;6.806;2023-04-03T13:06:42;4.63;;;3.00;;
4353;SDS011;11018;51.258;6.806;2023-04-03T13:09:20;3.60;;;1.80;;
4353;SDS011;11018;51.258;6.806;2023-04-03T13:11:57;8.23;;;4.05;;
4353;SDS011;11018;51.258;6.806;2023-04-03T13:14:26;5.78;;;2.42;;
4353;SDS011;11018;51.258;6.806;2023-04-03T13:16:54;5.70;;;1.90;;
4353;SDS011;11018;51.258;6.806;2023-04-03T13:19:22;6.47;;;2.57;;
4353;SDS011;11018;51.258;6.806;2023-04-03T13:21:56;8.33;;;3.43;;
4353;SDS011;11018;51.258;6.806;2023-04-03T13:24:30;7.60;;;3.00;;
4353;SDS011;11018;51.258;6.806;2023-04-03T13:26:58;5.75;;;3.70;;
4353;SDS011;11018;51.258;6.806;2023-04-03T13:29:28;5.30;;;2.60;;
4353;SDS011;11018;51.258;6.806;2023-04-03T13:31:59;4.03;;;2.15;;
4353;SDS011;11018;51.258;6.806;2023-04-03T13:34:29;4.88;;;1.85;;
4353;SDS011;11018;51.258;6.806;2023-04-03T13:37:05;5.75;;;2.10;;
4353;SDS011;11018;51.258;6.806;2023-04-03T13:39:34;3.63;;;1.98;;
4353;SDS011;11018;51.258;6.806;2023-04-03T13:42:16;4.03;;;2.40;;
4353;SDS011;11018;51.258;6.806;2023-04-03T13:44:47;4.90;;;2.80;;
4353;SDS011;11018;51.258;6.806;2023-04-03T13:47:18;3.60;;;1.80;;
4353;SDS011;11018;51.258;6.806;2023-04-03T13:50:00;3.53;;;2.00;;
4353;SDS011;11018;51.258;6.806;2023-04-03T13:52:42;5.50;;;2.80;;
4353;SDS011;11018;51.258;6.806;2023-04-03T13:57:50;3.47;;;2.63;;
4353;SDS011;11018;51.258;6.806;2023-04-03T14:00:26;2.80;;;1.55;;
4353;SDS011;11018;51.258;6.806;2023-04-03T14:03:23;4.80;;;2.65;;
4353;SDS011;11018;51.258;6.806;2023-04-03T14:05:53;4.38;;;1.92;;
4353;SDS011;11018;51.258;6.806;2023-04-03T14:08:19;5.20;;;2.50;;
4353;SDS011;11018;51.258;6.806;2023-04-03T14:10:45;3.70;;;1.90;;
4353;SDS011;11018;51.258;6.806;2023-04-03T14:13:15;3.80;;;2.45;;
4353;SDS011;11018;51.258;6.806;2023-04-03T14:15:43;4.30;;;1.80;;
4353;SDS011;11018;51.258;6.806;2023-04-03T14:18:12;6.03;;;2.70;;
4353;SDS011;11018;51.258;6.806;2023-04-03T14:20:39;4.25;;;2.80;;
4353;SDS011;11018;51.258;6.806;2023-04-03T14:23:05;7.25;;;3.20;;
4353;SDS011;11018;51.258;6.806;2023-04-03T14:25:31;5.28;;;2.72;;
4353;SDS011;11018;51.258;6.806;2023-04-03T14:27:57;7.20;;;1.90;;
4353;SDS011;11018;51.258;6.806;2023-04-03T14:30:29;6.28;;;2.80;;
4353;SDS011;11018;51.258;6.806;2023-04-03T14:32:57;5.47;;;2.10;;
4353;SDS011;11018;51.258;6.806;2023-04-03T14:35:24;4.93;;;2.42;;
4353;SDS011;11018;51.258;6.806;2023-04-03T14:37:50;5.68;;;3.05;;
4353;SDS011;11018;51.258;6.806;2023-04-03T14:40:19;3.58;;;1.70;;
4353;SDS011;11018;51.258;6.806;2023-04-03T14:42:48;5.80;;;2.28;;
4353;SDS011;11018;51.258;6.806;2023-04-03T14:45:16;5.00;;;2.10;;
4353;SDS011;11018;51.258;6.806;2023-04-03T14:47:47;5.80;;;2.40;;
4353;SDS011;11018;51.258;6.806;2023-04-03T14:50:22;6.82;;;2.40;;
4353;SDS011;11018;51.258;6.806;2023-04-03T14:52:50;5.60;;;1.60;;
4353;SDS011;11018;51.258;6.806;2023-04-03T14:55:19;2.58;;;1.50;;
4353;SDS011;11018;51.258;6.806;2023-04-03T14:57:46;2.72;;;1.77;;
4353;SDS011;11018;51.258;6.806;2023-04-03T15:00:16;7.15;;;2.22;;
4353;SDS011;11018;51.258;6.806;2023-04-03T15:02:44;3.63;;;2.00;;
4353;SDS011;11018;51.258;6.806;2023-04-03T15:05:11;9.48;;;2.80;;
4353;SDS011;11018;51.258;6.806;2023-04-03T15:07:38;3.60;;;2.50;;
4353;SDS011;11018;51.258;6.806;2023-04-03T15:12:39;5.07;;;2.10;;
4353;SDS011;11018;51.258;6.806;2023-04-03T15:15:05;5.57;;;2.05;;
4353;SDS011;11018;51.258;6.806;2023-04-03T15:17:31;4.27;;;1.90;;
4353;SDS011;11018;51.258;6.806;2023-04-03T15:19:58;3.77;;;2.00;;
4353;SDS011;11018;51.258;6.806;2023-04-03T15:22:24;4.68;;;2.25;;
4353;SDS011;11018;51.258;6.806;2023-04-03T15:24:50;13.40;;;2.20;;
4353;SDS011;11018;51.258;6.806;2023-04-03T15:27:15;5.00;;;2.20;;
4353;SDS011;11018;51.258;6.806;2023-04-03T15:29:42;3.13;;;1.90;;
4353;SDS011;11018;51.258;6.806;2023-04-03T15:32:08;4.40;;;1.95;;
4353;SDS011;11018;51.258;6.806;2023-04-03T15:34:34;6.97;;;2.38;;
4353;SDS011;11018;51.258;6.806;2023-04-03T15:37:00;4.93;;;2.10;;
4353;SDS011;11018;51.258;6.806;2023-04-03T15:39:26;5.40;;;2.50;;
4353;SDS011;11018;51.258;6.806;2023-04-03T15:41:52;4.90;;;2.20;;
4353;SDS011;11018;51.258;6.806;2023-04-03T15:44:19;3.90;;;1.77;;
4353;SDS011;11018;51.258;6.806;2023-04-03T15:46:47;4.25;;;2.13;;
4353;SDS011;11018;51.258;6.806;2023-04-03T15:49:16;5.53;;;1.90;;
4353;SDS011;11018;51.258;6.806;2023-04-03T15:51:45;6.20;;;1.90;;
4353;SDS011;11018;51.258;6.806;2023-04-03T15:54:11;5.17;;;2.30;;
4353;SDS011;11018;51.258;6.806;2023-04-03T15:56:37;7.15;;;2.40;;
4353;SDS011;11018;51.258;6.806;2023-04-03T15:59:03;5.50;;;2.00;;
4353;SDS011;11018;51.258;6.806;2023-04-03T16:01:28;5.97;;;2.20;;
4353;SDS011;11018;51.258;6.806;2023-04-03T16:03:54;7.00;;;2.00;;
4353;SDS011;11018;51.258;6.806;2023-04-03T16:06:20;8.23;;;2.42;;
4353;SDS011;11018;51.258;6.806;2023-04-03T16:08:46;6.47;;;2.27;;
4353;SDS011;11018;51.258;6.806;2023-04-03T16:11:12;6.85;;;2.30;;
4353;SDS011;11018;51.258;6.806;2023-04-03T16:13:38;4.40;;;1.87;;
4353;SDS011;11018;51.258;6.806;2023-04-03T16:16:03;5.73;;;2.20;;
4353;SDS011;11018;51.258;6.806;2023-04-03T16:18:29;5.25;;;1.80;;
4353;SDS011;11018;51.258;6.806;2023-04-03T16:20:55;3.70;;;2.03;;
4353;SDS011;11018;51.258;6.806;2023-04-03T16:23:22;4.13;;;2.20;;
4353;SDS011;11018;51.258;6.806;2023-04-03T16:25:48;3.80;;;2.10;;
4353;SDS011;11018;51.258;6.806;2023-04-03T16:28:15;4.57;;;2.25;;
4353;SDS011;11018;51.258;6.806;2023-04-03T16:30:42;3.50;;;1.93;;
4353;SDS011;11018;51.258;6.806;2023-04-03T16:33:09;4.75;;;2.20;;
4353;SDS011;11018;51.258;6.806;2023-04-03T16:35:35;2.30;;;1.77;;
4353;SDS011;11018;51.258;6.806;2023-04-03T16:38:01;6.78;;;2.53;;
4353;SDS011;11018;51.258;6.806;2023-04-03T16:40:27;7.30;;;2.38;;
4353;SDS011;11018;51.258;6.806;2023-04-03T16:42:52;4.80;;;2.00;;
4353;SDS011;11018;51.258;6.806;2023-04-03T16:45:18;5.10;;;2.67;;
4353;SDS011;11018;51.258;6.806;2023-04-03T16:47:43;7.80;;;2.25;;
4353;SDS011;11018;51.258;6.806;2023-04-03T16:50:09;4.13;;;2.10;;
4353;SDS011;11018;51.258;6.806;2023-04-03T16:52:35;4.68;;;2.08;;
4353;SDS011;11018;51.258;6.806;2023-04-03T16:55:00;5.70;;;2.10;;
4353;SDS011;11018;51.258;6.806;2023-04-03T16:57:26;5.17;;;2.50;;
4353;SDS011;11018;51.258;6.806;2023-04-03T16:59:52;6.05;;;2.70;;
4353;SDS011;11018;51.258;6.806;2023-04-03T17:02:19;5.40;;;2.70;;
4353;SDS011;11018;51.258;6.806;2023-04-03T17:04:46;1.90;;;1.70;;
4353;SDS011;11018;51.258;6.806;2023-04-03T17:07:11;7.63;;;2.42;;